Time;durP1;ratioP1;P1;durP2;ratioP2;P2;SDS_P1;SDS_P2;PMS_P1;PMS_P2;Temp;Humidity;BMP_temperature;BMP_pressure;BME280_temperature;BME280_humidity;BME280_pressure;Samples;Min_cycle;Max_cycle;Signal;HPM_P1;HPM_P2
2022/11/18 00:00:12;;;;;;;5.60;3.20;;;20.90;99.90;;;;;;4164021;28;20564;-72
2022/11/18 00:02:16;;;;;;;5.30;2.90;;;20.90;99.90;;;;;;4164162;28;20279;-72
2022/11/18 00:04:18;;;;;;;4.38;3.28;;;20.90;99.90;;;;;;4164555;28;20217;-72
2022/11/18 00:06:23;;;;;;;5.50;2.97;;;20.90;99.90;;;;;;4164286;28;20278;-72
2022/11/18 00:08:26;;;;;;;3.85;2.92;;;20.90;99.90;;;;;;4164520;28;20228;-72
2022/11/18 00:10:28;;;;;;;5.07;3.35;;;20.90;99.90;;;;;;4164499;28;20631;-72
2022/11/18 00:14:55;;;;;;;5.45;2.90;;;20.90;99.90;;;;;;4113301;28;20781;-72
2022/11/18 00:17:00;;;;;;;4.47;3.10;;;20.90;99.90;;;;;;4159133;28;20285;-72
2022/11/18 00:19:04;;;;;;;5.63;3.03;;;20.90;99.90;;;;;;4164226;28;20224;-72
2022/11/18 00:21:08;;;;;;;3.55;2.80;;;20.90;99.90;;;;;;4164263;28;20220;-72
2022/11/18 00:23:11;;;;;;;4.50;3.13;;;20.90;99.90;;;;;;4164116;28;20323;-72
2022/11/18 00:25:14;;;;;;;3.88;2.90;;;20.90;99.90;;;;;;4162459;28;20603;-72
2022/11/18 00:27:16;;;;;;;5.13;3.08;;;20.80;99.90;;;;;;4164028;28;20274;-72
2022/11/18 00:29:18;;;;;;;4.53;2.88;;;20.80;99.90;;;;;;4164770;28;20216;-72
2022/11/18 00:31:21;;;;;;;4.00;2.97;;;20.80;99.90;;;;;;4162925;28;20270;-71
2022/11/18 00:33:23;;;;;;;4.53;2.45;;;20.80;99.90;;;;;;4164256;28;20220;-72
2022/11/18 00:35:27;;;;;;;4.22;2.83;;;20.80;99.90;;;;;;4163531;28;20240;-72
2022/11/18 00:37:29;;;;;;;5.05;3.00;;;20.80;99.90;;;;;;4163498;28;20279;-72
2022/11/18 00:39:31;;;;;;;4.25;2.58;;;20.80;99.90;;;;;;4163960;28;20267;-72
2022/11/18 00:43:50;;;;;;;3.50;2.75;;;20.80;99.90;;;;;;4162874;28;20286;-72
2022/11/18 00:45:52;;;;;;;6.57;2.60;;;20.80;99.90;;;;;;4159572;28;20251;-72
2022/11/18 00:47:55;;;;;;;4.90;2.83;;;20.70;99.90;;;;;;4163939;28;20719;-71
2022/11/18 00:49:57;;;;;;;3.03;2.40;;;20.70;99.90;;;;;;4165014;28;20310;-71
2022/11/18 00:52:01;;;;;;;3.72;2.70;;;20.70;99.90;;;;;;4164502;28;20275;-71
2022/11/18 00:54:03;;;;;;;5.43;2.97;;;20.70;99.90;;;;;;4163264;28;20220;-71
2022/11/18 00:56:06;;;;;;;4.68;2.70;;;20.70;99.90;;;;;;4163224;28;20670;-72
2022/11/18 00:58:09;;;;;;;5.30;2.80;;;20.70;99.90;;;;;;4162191;28;20228;-72
2022/11/18 01:00:12;;;;;;;5.80;2.95;;;20.70;99.90;;;;;;4177445;28;20256;-72
2022/11/18 01:02:15;;;;;;;4.85;2.95;;;20.70;99.90;;;;;;4180247;28;20223;-72
2022/11/18 01:04:17;;;;;;;6.10;3.00;;;20.70;99.90;;;;;;4175192;28;20568;-72
2022/11/18 01:06:19;;;;;;;3.55;2.45;;;20.70;99.90;;;;;;4180237;28;20215;-71
2022/11/18 01:08:24;;;;;;;4.68;3.08;;;20.70;99.90;;;;;;4179887;28;20274;-72
2022/11/18 01:10:27;;;;;;;5.85;2.83;;;20.70;99.90;;;;;;4179782;28;20928;-72
2022/11/18 01:14:49;;;;;;;4.53;2.38;;;20.70;99.90;;;;;;4176059;28;20212;-71
2022/11/18 01:16:54;;;;;;;4.20;2.88;;;20.70;99.90;;;;;;4180262;28;20239;-72
2022/11/18 01:18:57;;;;;;;4.28;2.58;;;20.70;99.90;;;;;;4179872;28;20286;-71
2022/11/18 01:21:01;;;;;;;4.28;2.42;;;20.60;99.90;;;;;;4171097;28;20621;-71
2022/11/18 01:23:03;;;;;;;2.80;2.50;;;20.60;99.90;;;;;;4179562;28;20215;-72
2022/11/18 01:25:08;;;;;;;4.13;2.58;;;20.60;99.90;;;;;;4180038;28;20269;-72
2022/11/18 01:27:10;;;;;;;4.20;2.90;;;20.60;99.90;;;;;;4179519;28;20753;-72
2022/11/18 01:29:13;;;;;;;3.35;2.58;;;20.60;99.90;;;;;;4179519;28;20266;-72
2022/11/18 01:31:17;;;;;;;4.07;2.60;;;20.60;99.90;;;;;;4180032;28;20299;-72
2022/11/18 01:33:19;;;;;;;6.47;2.97;;;20.60;99.90;;;;;;4179892;28;20223;-72
2022/11/18 01:35:21;;;;;;;3.08;2.25;;;20.60;99.90;;;;;;4179548;28;20282;-71
2022/11/18 01:37:24;;;;;;;4.03;2.67;;;20.60;99.90;;;;;;4177934;28;20215;-71
2022/11/18 01:39:26;;;;;;;4.75;2.67;;;20.60;99.90;;;;;;4179798;28;20293;-71
2022/11/18 01:41:30;;;;;;;3.65;2.50;;;20.60;99.90;;;;;;4179062;28;20220;-71
2022/11/18 01:43:49;;;;;;;4.00;2.58;;;20.60;99.90;;;;;;4179112;28;20219;-71
2022/11/18 01:45:53;;;;;;;3.58;2.45;;;20.60;99.90;;;;;;4170510;28;20676;-71
2022/11/18 01:48:01;;;;;;;4.35;2.60;;;20.60;99.90;;;;;;4174833;28;20215;-72
2022/11/18 01:50:05;;;;;;;4.03;2.67;;;20.50;99.90;;;;;;4179214;28;20231;-72
2022/11/18 01:52:08;;;;;;;2.90;2.28;;;20.50;99.90;;;;;;4178041;28;20564;-71
2022/11/18 01:54:15;;;;;;;3.30;2.33;;;20.50;99.90;;;;;;4174445;28;20565;-71
2022/11/18 01:56:23;;;;;;;3.72;2.22;;;20.50;99.90;;;;;;4177263;28;20278;-72
2022/11/18 01:58:31;;;;;;;5.22;2.72;;;20.50;99.90;;;;;;4163814;28;20293;-72
2022/11/18 02:00:33;;;;;;;4.50;2.35;;;20.50;99.90;;;;;;4162779;28;20306;-72
2022/11/18 02:02:37;;;;;;;5.10;2.67;;;20.50;99.90;;;;;;4162773;28;20220;-72
2022/11/18 02:04:41;;;;;;;4.18;2.45;;;20.50;99.90;;;;;;4162172;28;20242;-72
2022/11/18 02:06:46;;;;;;;5.35;2.90;;;20.50;99.90;;;;;;4162928;28;20287;-72
2022/11/18 02:08:49;;;;;;;3.65;2.38;;;20.50;99.90;;;;;;4161434;28;20220;-72
2022/11/18 02:10:52;;;;;;;2.80;1.98;;;20.50;99.90;;;;;;4162389;28;20228;-72
2022/11/18 02:12:55;;;;;;;3.08;2.10;;;20.50;99.90;;;;;;4162171;28;20279;-72
2022/11/18 02:15:01;;;;;;;5.05;2.20;;;20.50;99.90;;;;;;4162561;28;20220;-72
2022/11/18 02:17:12;;;;;;;3.03;2.13;;;20.50;99.90;;;;;;4162680;28;20623;-72
2022/11/18 02:19:38;;;;;;;2.85;2.00;;;20.50;99.90;;;;;;4162046;28;20215;-72
2022/11/18 02:21:56;;;;;;;3.42;2.17;;;20.40;99.90;;;;;;4162345;28;20279;-72
2022/11/18 02:24:27;;;;;;;3.65;2.22;;;20.40;99.90;;;;;;4162440;28;20216;-72
2022/11/18 02:27:14;;;;;;;2.85;2.03;;;20.40;99.90;;;;;;4159969;28;20568;-72
2022/11/18 02:29:21;;;;;;;3.10;2.10;;;20.40;99.90;;;;;;4142603;28;20311;-72
2022/11/18 02:31:27;;;;;;;3.55;2.10;;;20.40;99.90;;;;;;4162930;28;20220;-72
2022/11/18 02:33:38;;;;;;;2.85;2.00;;;20.40;99.90;;;;;;4162603;28;20217;-72
2022/11/18 02:35:44;;;;;;;3.97;2.38;;;20.40;99.90;;;;;;4162251;28;20279;-73
2022/11/18 02:37:50;;;;;;;3.50;2.10;;;20.40;99.90;;;;;;4162417;28;20263;-72
2022/11/18 02:39:57;;;;;;;3.67;2.40;;;20.40;99.90;;;;;;4162115;28;20250;-72
2022/11/18 02:42:02;;;;;;;4.07;1.98;;;20.40;99.90;;;;;;4162296;28;20224;-72
2022/11/18 02:44:09;;;;;;;5.05;2.30;;;20.40;99.90;;;;;;4157185;28;20224;-72
2022/11/18 02:46:17;;;;;;;3.70;2.22;;;20.40;99.90;;;;;;4162009;28;20325;-72
2022/11/18 02:48:22;;;;;;;2.90;2.10;;;20.30;99.90;;;;;;4163774;28;20605;-72
2022/11/18 02:50:27;;;;;;;2.55;1.98;;;20.30;99.90;;;;;;4165312;28;20228;-72
2022/11/18 02:52:32;;;;;;;3.00;2.22;;;20.30;99.90;;;;;;4161107;28;20260;-72
2022/11/18 02:54:38;;;;;;;3.13;2.08;;;20.30;99.90;;;;;;4166804;28;20220;-72
2022/11/18 02:56:42;;;;;;;3.47;2.33;;;20.30;99.90;;;;;;4161920;28;20243;-72
2022/11/18 02:58:44;;;;;;;3.20;1.95;;;20.30;99.90;;;;;;4170596;28;20243;-72
2022/11/18 03:00:53;;;;;;;3.75;2.28;;;20.30;99.90;;;;;;4180944;28;20208;-72
2022/11/18 03:02:57;;;;;;;3.47;1.85;;;20.30;99.90;;;;;;4168138;28;20215;-72
2022/11/18 03:04:59;;;;;;;3.78;2.00;;;20.30;99.90;;;;;;4182200;28;20224;-72
2022/11/18 03:07:11;;;;;;;2.13;1.73;;;20.30;99.90;;;;;;4181882;28;20207;-72
2022/11/18 03:09:20;;;;;;;3.70;2.47;;;20.30;99.90;;;;;;4181678;28;20219;-72
2022/11/18 03:11:25;;;;;;;3.28;2.40;;;20.30;99.90;;;;;;4182377;28;20262;-73
2022/11/18 03:13:35;;;;;;;2.85;2.30;;;20.30;99.90;;;;;;4175387;28;20275;-70
2022/11/18 03:15:48;;;;;;;4.95;2.30;;;20.20;99.90;;;;;;4179600;28;20246;-71
2022/11/18 03:18:00;;;;;;;4.07;2.38;;;20.30;99.90;;;;;;4180931;28;20231;-71
2022/11/18 03:20:12;;;;;;;3.20;1.63;;;20.20;99.90;;;;;;4182119;28;20289;-72
2022/11/18 03:22:17;;;;;;;3.22;2.08;;;20.20;99.90;;;;;;4181792;28;20254;-71
2022/11/18 03:24:25;;;;;;;2.47;1.83;;;20.30;99.90;;;;;;4181693;28;20293;-71
2022/11/18 03:26:31;;;;;;;3.13;2.00;;;20.20;99.90;;;;;;4181543;28;20272;-72
2022/11/18 03:28:38;;;;;;;2.92;2.03;;;20.30;99.90;;;;;;4181295;28;20220;-72
2022/11/18 03:30:49;;;;;;;3.90;1.90;;;20.20;99.90;;;;;;4181558;28;20243;-71
2022/11/18 03:32:56;;;;;;;3.25;1.98;;;20.20;99.90;;;;;;4181167;28;20227;-72
2022/11/18 03:35:04;;;;;;;3.50;2.10;;;20.20;99.90;;;;;;4180230;28;20222;-71
2022/11/18 03:37:10;;;;;;;3.03;2.08;;;20.20;99.90;;;;;;4181088;28;20235;-72
2022/11/18 03:39:15;;;;;;;2.60;1.83;;;20.20;99.90;;;;;;4181256;28;20219;-72
2022/11/18 03:41:20;;;;;;;2.03;1.75;;;20.20;99.90;;;;;;4181437;28;20223;-71
2022/11/18 03:43:26;;;;;;;3.05;2.08;;;20.20;99.90;;;;;;4181156;28;20243;-72
2022/11/18 03:45:34;;;;;;;2.83;1.73;;;20.20;99.90;;;;;;4181786;28;20354;-72
2022/11/18 03:47:42;;;;;;;2.95;1.90;;;20.20;99.90;;;;;;4181537;28;20211;-71
2022/11/18 03:49:47;;;;;;;2.40;1.50;;;20.20;99.90;;;;;;4172846;28;20263;-71
2022/11/18 03:51:56;;;;;;;2.47;1.77;;;20.20;99.90;;;;;;4166856;28;20217;-72
2022/11/18 03:54:05;;;;;;;3.50;2.00;;;20.20;99.90;;;;;;4167441;28;20224;-71
2022/11/18 03:56:11;;;;;;;2.40;1.73;;;20.10;99.90;;;;;;4186028;28;20207;-71
2022/11/18 03:58:20;;;;;;;2.50;1.70;;;20.10;99.90;;;;;;4167456;28;20665;-71
2022/11/18 04:00:23;;;;;;;2.42;1.77;;;20.10;99.90;;;;;;4164114;28;20219;-72
2022/11/18 04:02:28;;;;;;;2.00;1.80;;;20.10;99.90;;;;;;4164644;28;20224;-72
2022/11/18 04:04:30;;;;;;;2.67;1.70;;;20.10;99.90;;;;;;4176089;28;20265;-72
2022/11/18 04:06:39;;;;;;;2.92;1.77;;;20.10;99.90;;;;;;4179674;28;20216;-72
2022/11/18 04:08:46;;;;;;;3.17;1.70;;;20.10;99.90;;;;;;4181160;28;20271;-72
2022/11/18 04:10:52;;;;;;;2.53;1.83;;;20.10;99.90;;;;;;4181438;28;20223;-72
2022/11/18 04:13:02;;;;;;;3.30;1.73;;;20.00;99.90;;;;;;4179701;28;20219;-72
2022/11/18 04:15:05;;;;;;;2.50;1.55;;;20.10;99.90;;;;;;4170327;28;20227;-72
2022/11/18 04:17:09;;;;;;;2.60;1.60;;;20.10;99.90;;;;;;4181761;28;20375;-72
2022/11/18 04:19:12;;;;;;;3.10;1.77;;;20.10;99.90;;;;;;4181715;28;20632;-72
2022/11/18 04:21:14;;;;;;;3.53;1.80;;;20.10;99.90;;;;;;4170079;28;20220;-72
2022/11/18 04:23:16;;;;;;;2.05;1.80;;;20.10;99.90;;;;;;4180857;28;20633;-73
2022/11/18 04:25:20;;;;;;;2.75;1.85;;;20.00;99.90;;;;;;4180817;28;20227;-72
2022/11/18 04:27:22;;;;;;;4.07;1.90;;;20.10;99.90;;;;;;4180526;28;20737;-72
2022/11/18 04:29:27;;;;;;;2.05;1.58;;;20.00;99.90;;;;;;4180444;28;21082;-72
2022/11/18 04:31:29;;;;;;;2.95;1.80;;;20.00;99.90;;;;;;4180554;28;20331;-72
2022/11/18 04:33:31;;;;;;;2.20;1.80;;;20.10;99.90;;;;;;4180371;28;20220;-73
2022/11/18 04:35:33;;;;;;;2.17;1.55;;;20.00;99.90;;;;;;4180579;28;20220;-72
2022/11/18 04:37:36;;;;;;;2.42;1.50;;;20.00;99.90;;;;;;4179979;28;20305;-72
2022/11/18 04:39:38;;;;;;;2.35;1.60;;;20.00;99.90;;;;;;4175936;28;20216;-73
2022/11/18 04:41:57;;;;;;;2.03;1.60;;;20.00;99.90;;;;;;4178714;28;20227;-72
2022/11/18 04:43:59;;;;;;;2.90;1.85;;;20.00;99.90;;;;;;4180222;28;20216;-73
2022/11/18 04:46:01;;;;;;;2.65;1.75;;;20.00;99.90;;;;;;4180416;28;20289;-72
2022/11/18 04:48:06;;;;;;;3.58;1.77;;;20.00;99.90;;;;;;4181577;28;20219;-73
2022/11/18 04:50:09;;;;;;;2.78;1.88;;;20.00;99.90;;;;;;4183406;28;20254;-72
2022/11/18 04:52:12;;;;;;;3.05;1.67;;;20.00;99.90;;;;;;4176211;28;20655;-72
2022/11/18 04:54:15;;;;;;;2.47;1.67;;;20.00;99.90;;;;;;4180509;28;20219;-73
2022/11/18 04:56:17;;;;;;;3.03;1.92;;;20.00;99.90;;;;;;4178006;28;20258;-73
2022/11/18 04:58:21;;;;;;;4.20;1.83;;;20.00;99.90;;;;;;4178110;28;20243;-72
2022/11/18 05:00:23;;;;;;;2.60;1.73;;;20.00;99.90;;;;;;4163329;28;20231;-73
2022/11/18 05:02:25;;;;;;;2.17;1.38;;;20.00;99.90;;;;;;4163809;28;20232;-72
2022/11/18 05:04:30;;;;;;;2.97;1.70;;;20.00;99.90;;;;;;4163712;28;20236;-72
2022/11/18 05:06:34;;;;;;;2.70;1.67;;;20.00;99.90;;;;;;4163646;28;20615;-72
2022/11/18 05:08:36;;;;;;;2.53;1.60;;;19.90;99.90;;;;;;4161948;28;20225;-72
2022/11/18 05:10:38;;;;;;;2.25;1.70;;;19.90;99.90;;;;;;4162694;28;20216;-72
2022/11/18 05:12:49;;;;;;;3.20;1.85;;;19.90;99.90;;;;;;4162177;28;20262;-72
2022/11/18 05:14:52;;;;;;;3.00;1.58;;;19.90;99.90;;;;;;4161747;28;20216;-72
2022/11/18 05:16:56;;;;;;;2.30;1.80;;;19.90;99.90;;;;;;4163074;28;20224;-73
2022/11/18 05:18:58;;;;;;;2.97;1.55;;;19.90;99.90;;;;;;4163329;28;20762;-72
2022/11/18 05:21:05;;;;;;;2.88;1.60;;;19.90;99.90;;;;;;4163614;28;20216;-72
2022/11/18 05:23:08;;;;;;;3.75;1.98;;;19.90;99.90;;;;;;4162894;28;20220;-72
2022/11/18 05:25:10;;;;;;;3.33;1.70;;;19.90;99.90;;;;;;4163275;28;20220;-72
2022/11/18 05:27:13;;;;;;;2.55;1.38;;;19.90;99.90;;;;;;4163259;28;20216;-72
2022/11/18 05:29:17;;;;;;;2.05;1.30;;;19.90;99.90;;;;;;4160482;28;20699;-72
2022/11/18 05:31:21;;;;;;;2.13;1.45;;;19.90;99.90;;;;;;4163288;28;20641;-72
2022/11/18 05:33:24;;;;;;;1.88;1.50;;;19.80;99.90;;;;;;4163398;28;20287;-72
2022/11/18 05:35:26;;;;;;;3.00;1.75;;;19.90;99.90;;;;;;4163327;28;20331;-72
2022/11/18 05:37:28;;;;;;;1.95;1.52;;;19.80;99.90;;;;;;4162498;28;20275;-72
2022/11/18 05:39:32;;;;;;;2.10;1.70;;;19.90;99.90;;;;;;4163287;28;20279;-72
2022/11/18 05:43:54;;;;;;;2.83;1.63;;;19.80;99.90;;;;;;4163405;28;20196;-72
2022/11/18 05:45:57;;;;;;;3.90;1.65;;;19.80;99.90;;;;;;4161848;28;20731;-72
2022/11/18 05:48:03;;;;;;;2.67;1.67;;;19.80;99.90;;;;;;4163645;28;20216;-72
2022/11/18 05:50:06;;;;;;;2.10;1.52;;;19.80;99.90;;;;;;4167405;28;20562;-72
2022/11/18 05:52:09;;;;;;;2.92;1.70;;;19.80;99.90;;;;;;4162493;28;20212;-72
2022/11/18 05:54:13;;;;;;;2.45;1.60;;;19.80;99.90;;;;;;4163062;28;20221;-72
2022/11/18 05:56:20;;;;;;;3.22;1.60;;;19.70;99.90;;;;;;4157996;28;20259;-72
2022/11/18 05:58:23;;;;;;;1.90;1.40;;;19.80;99.90;;;;;;4164221;28;20682;-72
2022/11/18 06:00:25;;;;;;;2.13;1.60;;;19.80;99.90;;;;;;4166791;28;20219;-72
2022/11/18 06:02:29;;;;;;;4.15;1.70;;;19.80;99.90;;;;;;4179669;28;20279;-72
2022/11/18 06:04:39;;;;;;;2.55;1.58;;;19.80;99.90;;;;;;4178487;28;20220;-72
2022/11/18 06:06:42;;;;;;;2.53;1.55;;;19.80;99.90;;;;;;4174790;28;20615;-72
2022/11/18 06:08:48;;;;;;;2.58;1.48;;;19.90;99.90;;;;;;4179651;28;20615;-72
2022/11/18 06:10:52;;;;;;;2.40;1.40;;;19.90;99.90;;;;;;4179463;28;20220;-72
2022/11/18 06:12:58;;;;;;;2.85;1.70;;;20.00;99.90;;;;;;4176064;28;20594;-72
2022/11/18 06:15:05;;;;;;;2.83;1.33;;;19.90;99.90;;;;;;4174369;28;20269;-72
2022/11/18 06:17:11;;;;;;;3.00;1.60;;;20.00;99.90;;;;;;4178917;28;20562;-72
2022/11/18 06:19:14;;;;;;;2.95;1.67;;;20.00;99.90;;;;;;4178699;28;20290;-72
2022/11/18 06:21:17;;;;;;;3.60;1.60;;;20.00;99.90;;;;;;4177437;28;20208;-72
2022/11/18 06:23:20;;;;;;;3.22;1.50;;;20.00;99.90;;;;;;4178789;28;20274;-72
2022/11/18 06:25:23;;;;;;;3.22;1.60;;;20.00;99.90;;;;;;4178886;28;20224;-73
2022/11/18 06:27:25;;;;;;;2.47;1.30;;;20.00;99.90;;;;;;4178856;28;20645;-72
2022/11/18 06:29:28;;;;;;;2.30;1.30;;;20.00;99.90;;;;;;4178967;28;20281;-72
2022/11/18 06:31:30;;;;;;;3.13;1.38;;;20.10;99.90;;;;;;4178704;28;20286;-72
2022/11/18 06:33:33;;;;;;;1.67;1.45;;;20.10;99.90;;;;;;4178946;28;20223;-72
2022/11/18 06:35:35;;;;;;;3.20;1.50;;;20.00;99.90;;;;;;4178820;28;20725;-72
2022/11/18 06:37:39;;;;;;;2.42;1.58;;;20.00;99.90;;;;;;4176949;28;20561;-72
2022/11/18 06:39:41;;;;;;;2.67;1.73;;;20.00;99.90;;;;;;4175962;28;20278;-72
2022/11/18 06:41:43;;;;;;;2.78;1.77;;;20.10;99.90;;;;;;4172711;28;20234;-72
2022/11/18 06:43:45;;;;;;;3.67;1.50;;;20.10;99.90;;;;;;4178069;28;20563;-72
2022/11/18 06:48:04;;;;;;;3.30;1.30;;;20.10;99.90;;;;;;4176995;28;20219;-72
2022/11/18 06:50:07;;;;;;;3.58;1.50;;;20.10;99.90;;;;;;4177521;28;20228;-72
2022/11/18 06:52:09;;;;;;;2.38;1.30;;;20.10;99.90;;;;;;4177578;28;20266;-72
2022/11/18 06:54:13;;;;;;;3.03;1.30;;;20.10;99.90;;;;;;4177896;28;20219;-72
2022/11/18 06:56:16;;;;;;;2.90;1.30;;;20.10;99.90;;;;;;4176661;28;20659;-72
2022/11/18 06:58:18;;;;;;;2.75;1.45;;;20.10;99.90;;;;;;4176959;28;20289;-72
2022/11/18 07:00:21;;;;;;;2.35;1.50;;;20.20;99.90;;;;;;4178083;28;20223;-72
2022/11/18 07:02:23;;;;;;;2.90;1.60;;;20.20;99.90;;;;;;4178270;28;20277;-72
2022/11/18 07:04:26;;;;;;;1.92;1.38;;;20.20;99.90;;;;;;4178972;28;20227;-72
2022/11/18 07:06:30;;;;;;;2.55;1.50;;;20.20;99.90;;;;;;4178678;28;20228;-72
2022/11/18 07:08:34;;;;;;;1.50;1.10;;;20.20;99.90;;;;;;4178384;28;20211;-72
2022/11/18 07:10:38;;;;;;;2.45;1.20;;;20.20;99.90;;;;;;4178490;28;20220;-72
2022/11/18 07:12:40;;;;;;;3.13;1.52;;;20.20;99.90;;;;;;4169669;28;20213;-72
2022/11/18 07:14:43;;;;;;;3.70;1.60;;;20.20;99.90;;;;;;4173070;28;20223;-72
2022/11/18 07:16:45;;;;;;;2.63;1.40;;;20.20;99.90;;;;;;4178499;28;20220;-72
2022/11/18 07:18:49;;;;;;;2.13;1.40;;;20.30;99.90;;;;;;4178603;28;20240;-72
2022/11/18 07:20:51;;;;;;;3.45;1.30;;;20.20;99.90;;;;;;4178271;28;20269;-72
2022/11/18 07:22:55;;;;;;;2.22;1.40;;;20.30;99.90;;;;;;4177969;28;20274;-72
2022/11/18 07:24:57;;;;;;;2.45;1.48;;;20.30;99.90;;;;;;4178481;28;20310;-72
2022/11/18 07:27:01;;;;;;;3.00;1.52;;;20.30;99.90;;;;;;4178085;28;20216;-72
2022/11/18 07:29:04;;;;;;;3.53;1.60;;;20.30;99.90;;;;;;4177972;28;20726;-72
2022/11/18 07:31:08;;;;;;;2.67;1.17;;;20.30;99.90;;;;;;4178064;28;20285;-72
2022/11/18 07:33:11;;;;;;;2.22;1.10;;;20.30;99.90;;;;;;4177942;28;20232;-72
2022/11/18 07:35:13;;;;;;;2.92;1.38;;;20.30;99.90;;;;;;4180896;28;20216;-72
2022/11/18 07:37:15;;;;;;;1.48;1.00;;;20.30;99.90;;;;;;4181021;28;20216;-72
2022/11/18 07:39:17;;;;;;;2.95;1.58;;;20.30;99.90;;;;;;4181391;28;20406;-72
2022/11/18 07:41:21;;;;;;;2.70;1.20;;;20.30;99.90;;;;;;4178694;28;20219;-72
2022/11/18 07:43:25;;;;;;;3.28;1.30;;;20.30;99.90;;;;;;4178891;28;20215;-72
2022/11/18 07:45:27;;;;;;;3.38;1.33;;;20.40;99.90;;;;;;4180189;28;20287;-72
2022/11/18 07:47:29;;;;;;;3.20;1.50;;;20.40;99.90;;;;;;4181462;28;20219;-72
2022/11/18 07:49:32;;;;;;;3.33;1.40;;;20.40;99.90;;;;;;4181608;28;20623;-72
2022/11/18 07:51:36;;;;;;;2.47;1.30;;;20.40;99.90;;;;;;4180980;28;20220;-72
2022/11/18 07:53:38;;;;;;;2.25;1.30;;;20.40;99.90;;;;;;4180964;28;20223;-72
2022/11/18 07:55:40;;;;;;;2.42;1.40;;;20.50;99.90;;;;;;4172922;28;20628;-72
2022/11/18 07:57:43;;;;;;;3.45;1.30;;;20.50;99.90;;;;;;4179956;28;20266;-72
2022/11/18 07:59:47;;;;;;;3.42;1.48;;;20.50;99.90;;;;;;4180579;28;20239;-73
2022/11/18 08:01:49;;;;;;;4.53;1.52;;;20.60;99.90;;;;;;4168763;28;20220;-73
2022/11/18 08:03:51;;;;;;;2.33;1.42;;;20.60;99.90;;;;;;4174284;28;20212;-73
2022/11/18 08:05:58;;;;;;;10.35;1.98;;;20.60;99.90;;;;;;4174604;28;21218;-76
2022/11/18 08:08:00;;;;;;;5.45;1.40;;;20.50;99.90;;;;;;4170418;28;20294;-76
2022/11/18 08:10:03;;;;;;;6.90;1.80;;;20.50;99.90;;;;;;4172739;28;20579;-75
2022/11/18 08:12:06;;;;;;;3.83;1.58;;;20.60;99.90;;;;;;4173088;28;20265;-76
2022/11/18 08:14:08;;;;;;;4.50;1.70;;;20.70;99.90;;;;;;4171236;28;20518;-76
2022/11/18 08:16:15;;;;;;;4.50;1.60;;;20.70;99.90;;;;;;4176485;28;20227;-76
2022/11/18 08:18:17;;;;;;;6.28;1.45;;;20.80;99.90;;;;;;4172128;28;20216;-76
2022/11/18 08:20:19;;;;;;;4.75;1.27;;;20.80;99.90;;;;;;4176097;28;20248;-75
2022/11/18 08:22:22;;;;;;;5.68;1.42;;;20.80;99.90;;;;;;4174406;28;20262;-77
2022/11/18 08:24:24;;;;;;;4.60;1.70;;;20.80;99.90;;;;;;4174075;28;20268;-77
2022/11/18 08:26:27;;;;;;;3.15;1.70;;;20.90;99.90;;;;;;4174735;28;20228;-77
2022/11/18 08:28:29;;;;;;;3.78;1.42;;;20.90;99.90;;;;;;4170203;28;20313;-76
2022/11/18 08:30:33;;;;;;;2.85;1.45;;;21.00;99.90;;;;;;4173579;28;20207;-75
2022/11/18 08:32:36;;;;;;;3.60;1.25;;;20.90;99.90;;;;;;4172326;28;20216;-76
2022/11/18 08:34:39;;;;;;;4.75;1.67;;;20.90;99.90;;;;;;4175098;28;20673;-75
2022/11/18 08:36:41;;;;;;;3.53;1.40;;;21.00;99.90;;;;;;4170343;28;20207;-76
2022/11/18 08:38:43;;;;;;;4.15;1.73;;;21.00;99.90;;;;;;4173495;28;20211;-78
2022/11/18 08:40:48;;;;;;;3.67;1.50;;;21.00;99.90;;;;;;4173812;28;20232;-77
2022/11/18 08:42:50;;;;;;;5.70;1.88;;;21.00;99.90;;;;;;4177015;28;20212;-77
2022/11/18 08:44:52;;;;;;;4.28;1.55;;;21.00;99.90;;;;;;4174242;28;20208;-76
2022/11/18 08:46:54;;;;;;;6.03;1.40;;;21.00;99.90;;;;;;4175016;28;20250;-77
2022/11/18 08:48:59;;;;;;;4.82;1.70;;;21.00;99.90;;;;;;4167453;28;20707;-74
2022/11/18 08:51:01;;;;;;;5.43;1.90;;;21.00;99.90;;;;;;4173626;28;20277;-73
2022/11/18 08:53:04;;;;;;;6.20;1.60;;;21.00;99.90;;;;;;4175400;28;20641;-75
2022/11/18 08:55:06;;;;;;;8.27;1.98;;;20.90;99.90;;;;;;4172992;28;20216;-74
2022/11/18 08:57:08;;;;;;;6.45;1.90;;;20.80;99.90;;;;;;4170048;28;20216;-74
2022/11/18 08:59:11;;;;;;;4.47;1.65;;;20.70;99.90;;;;;;4174212;28;20784;-77
2022/11/18 09:01:14;;;;;;;4.35;1.83;;;20.70;99.90;;;;;;4156008;28;20807;-75
2022/11/18 09:03:16;;;;;;;9.45;1.80;;;20.60;99.90;;;;;;4157146;28;20274;-75
2022/11/18 09:05:20;;;;;;;5.63;1.70;;;20.60;99.90;;;;;;4156579;28;20212;-74
2022/11/18 09:07:23;;;;;;;6.18;1.80;;;20.50;99.90;;;;;;4166360;28;20346;-73
2022/11/18 09:09:26;;;;;;;6.88;2.00;;;20.60;99.90;;;;;;4158054;28;20239;-75
2022/11/18 09:11:28;;;;;;;7.10;2.10;;;20.60;99.90;;;;;;4158624;28;21134;-76
2022/11/18 09:13:30;;;;;;;4.43;1.88;;;20.50;99.90;;;;;;4154798;28;20296;-74
2022/11/18 09:15:33;;;;;;;7.28;2.17;;;20.60;99.90;;;;;;4153935;28;21007;-75
2022/11/18 09:17:35;;;;;;;5.35;2.17;;;20.50;99.90;;;;;;4160680;28;20619;-73
2022/11/18 09:19:38;;;;;;;4.90;2.10;;;20.40;99.90;;;;;;4158319;28;20232;-74
2022/11/18 09:21:41;;;;;;;5.28;2.03;;;20.40;99.90;;;;;;4157307;28;20225;-73
2022/11/18 09:23:44;;;;;;;4.40;2.00;;;20.40;99.90;;;;;;4158533;28;20620;-74
2022/11/18 09:25:46;;;;;;;4.88;1.80;;;20.40;99.90;;;;;;4158196;28;20216;-74
2022/11/18 09:27:51;;;;;;;7.68;1.90;;;20.40;99.90;;;;;;4150305;28;20204;-74
2022/11/18 09:29:53;;;;;;;5.00;1.45;;;20.40;99.90;;;;;;4148354;28;20212;-75
2022/11/18 09:31:56;;;;;;;6.03;1.95;;;20.30;99.90;;;;;;4156078;28;20216;-75
2022/11/18 09:33:59;;;;;;;7.72;1.77;;;20.30;99.90;;;;;;4156968;28;20212;-77
2022/11/18 09:36:01;;;;;;;3.38;1.60;;;20.50;99.90;;;;;;4148239;28;20669;-73
2022/11/18 09:38:05;;;;;;;5.50;1.42;;;20.70;99.90;;;;;;4154386;28;20972;-74
2022/11/18 09:40:15;;;;;;;3.78;1.75;;;20.90;99.90;;;;;;4152443;28;20240;-73
2022/11/18 09:42:36;;;;;;;4.03;1.40;;;20.90;99.90;;;;;;4160816;28;20286;-75
2022/11/18 09:44:50;;;;;;;4.93;1.30;;;21.00;99.90;;;;;;4155680;28;20216;-76
2022/11/18 09:47:04;;;;;;;6.32;1.45;;;21.10;99.90;;;;;;4153847;28;20312;-76
2022/11/18 09:49:14;;;;;;;6.15;1.80;;;21.20;99.90;;;;;;4150502;28;20664;-77
2022/11/18 09:51:16;;;;;;;5.95;1.50;;;21.20;99.90;;;;;;4159193;28;20340;-76
2022/11/18 09:53:22;;;;;;;3.40;1.73;;;21.30;99.90;;;;;;4159248;28;20216;-77
2022/11/18 09:55:25;;;;;;;4.82;1.58;;;21.30;99.90;;;;;;4153415;28;20224;-75
2022/11/18 09:57:37;;;;;;;7.38;1.75;;;21.30;99.90;;;;;;4157199;28;20239;-75
2022/11/18 09:59:40;;;;;;;3.25;1.30;;;21.30;99.90;;;;;;4168175;28;20239;-74
2022/11/18 10:01:43;;;;;;;3.53;1.25;;;21.40;99.90;;;;;;4174047;28;20220;-75
2022/11/18 10:03:45;;;;;;;10.43;1.65;;;21.50;99.90;;;;;;4174362;28;20245;-74
2022/11/18 10:05:52;;;;;;;5.85;1.70;;;21.50;99.90;;;;;;4173522;28;20215;-76
2022/11/18 10:08:07;;;;;;;6.45;1.50;;;21.50;99.90;;;;;;4174902;28;20216;-75
2022/11/18 10:10:16;;;;;;;4.50;1.52;;;21.40;99.90;;;;;;4168470;28;20211;-75
2022/11/18 10:12:27;;;;;;;3.63;1.30;;;21.50;99.90;;;;;;4166482;28;20784;-74
2022/11/18 10:14:43;;;;;;;6.20;1.55;;;21.50;99.90;;;;;;4174152;28;20207;-75
2022/11/18 10:16:55;;;;;;;3.50;1.20;;;21.50;99.90;;;;;;4171304;28;20271;-75
2022/11/18 10:19:04;;;;;;;4.78;1.90;;;21.50;99.90;;;;;;4170611;28;20211;-74
2022/11/18 10:21:17;;;;;;;4.00;1.30;;;21.60;99.90;;;;;;4171629;28;20286;-74
2022/11/18 10:23:24;;;;;;;4.88;1.50;;;21.60;99.90;;;;;;4166129;28;20275;-75
2022/11/18 10:25:28;;;;;;;6.05;1.60;;;21.60;99.90;;;;;;4173780;28;20216;-75
2022/11/18 10:27:37;;;;;;;5.45;1.60;;;21.60;99.90;;;;;;4173234;28;20891;-76
2022/11/18 10:29:40;;;;;;;2.65;1.33;;;21.60;99.90;;;;;;4172502;28;20219;-77
2022/11/18 10:32:02;;;;;;;3.03;1.45;;;21.60;99.90;;;;;;4175857;28;20673;-77
2022/11/18 10:34:05;;;;;;;3.17;1.45;;;21.60;99.90;;;;;;4175265;28;20223;-76
2022/11/18 10:36:19;;;;;;;2.47;1.30;;;21.60;99.90;;;;;;4177395;28;20281;-75
2022/11/18 10:38:21;;;;;;;4.15;1.40;;;21.60;99.90;;;;;;4179058;28;20549;-75
2022/11/18 10:40:27;;;;;;;2.83;1.08;;;21.60;99.90;;;;;;4171051;28;21044;-76
2022/11/18 10:42:35;;;;;;;5.10;1.27;;;21.60;99.90;;;;;;4176532;28;20215;-76
2022/11/18 10:44:39;;;;;;;3.13;1.30;;;21.70;99.90;;;;;;4170921;28;20325;-76
2022/11/18 10:46:41;;;;;;;5.68;1.40;;;21.80;99.90;;;;;;4165522;28;20275;-75
2022/11/18 10:48:44;;;;;;;4.38;1.42;;;21.70;99.90;;;;;;4169970;28;20223;-77
2022/11/18 10:50:49;;;;;;;3.65;1.35;;;21.70;99.90;;;;;;4170269;28;20212;-76
2022/11/18 10:52:53;;;;;;;2.33;1.30;;;21.80;99.90;;;;;;4169680;28;20703;-77
2022/11/18 10:55:27;;;;;;;3.95;1.38;;;21.70;99.90;;;;;;4165487;28;20264;-77
2022/11/18 10:57:36;;;;;;;3.33;1.17;;;21.70;99.90;;;;;;4171438;28;20270;-77
2022/11/18 10:59:41;;;;;;;3.67;1.30;;;21.80;99.90;;;;;;4167611;28;20242;-75
2022/11/18 11:01:43;;;;;;;3.10;1.20;;;21.80;99.90;;;;;;4173205;28;20236;-75